Funchalense 5 — CSKN — position and weather

sailwx.info

Track history (hours):
 
Tides and Currents Weather Stations Pressure Air Temp Water Temp Dewpoint Dewpoint Depression Visibility Wind Speed Wind Dir Waves Ship Positions

Funchalense 5

Last reported at 2017-Feb-26 04:21 UTC. Time now 2017-Feb-26 07:38 UTC.
Position N 37°32' W 010°50'.

Length 127 m; draft 7.5 m.

Type: Ship. MMSI: 255804250.

Date/timePositionNaut miles runAvg speedWind from/ knotsBaromVisibWave heightAir tempDewpointWater temp
2017-Feb-26 04:21N 37°32' W 010°50'1215.3
2017-Feb-26 03:33N 37°40' W 010°39'2115.3
2017-Feb-26 02:12N 37°54' W 010°20'1715.2
2017-Feb-26 01:04N 38°06' W 010°04'1015.4
2017-Feb-26 00:27N 38°13' W 009°55'1415.3
2017-Feb-25 23:33N 38°22' W 009°43'1515.2
2017-Feb-25 22:33N 38°33' W 009°29'1514.5
2017-Feb-25 21:31N 38°41' W 009°13'5 5.2
2017-Feb-25 20:32N 38°43' W 009°07'0 0.0
2017-Feb-25 19:33N 38°43' W 009°07'0 0.0
2017-Feb-25 18:29N 38°43' W 009°07'0 0.0
2017-Feb-25 17:32N 38°43' W 009°07'0 0.0
2017-Feb-25 16:31N 38°43' W 009°07'0 0.0
2017-Feb-25 15:28N 38°43' W 009°07'0 0.0
2017-Feb-25 14:33N 38°43' W 009°07'0 0.0
2017-Feb-25 13:33N 38°43' W 009°07'0 0.0
2017-Feb-25 12:33N 38°43' W 009°07'0 0.0
2017-Feb-25 11:33N 38°43' W 009°07'0 0.0
2017-Feb-25 10:33N 38°43' W 009°07'0 0.0
2017-Feb-25 09:26N 38°43' W 009°07'0 0.0
2017-Feb-25 08:31N 38°43' W 009°07'0 0.2
2017-Feb-25 07:33N 38°43' W 009°07'10 9.9
2017-Feb-25 06:33N 38°40' W 009°19'1312.9
2017-Feb-25 05:33N 38°38' W 009°35'1212.2
2017-Feb-25 04:33N 38°48' W 009°44'1514.8
2017-Feb-25 03:33N 39°03' W 009°44'1414.2
2017-Feb-25 02:33N 39°17' W 009°44'38 0.8
2017-Feb-23 05:16N 39°54' W 009°54'1515.2
2017-Feb-23 04:18N 39°47' W 010°11'1614.8
2017-Feb-23 03:14N 39°35' W 010°23'1014.9
2017-Feb-23 02:33N 39°27' W 010°32'1515.1
2017-Feb-23 01:33N 39°15' W 010°43'1515.3
2017-Feb-23 00:33N 39°03' W 010°55'1515.5
2017-Feb-22 23:33N 38°50' W 011°07'1515.5
2017-Feb-22 22:33N 38°38' W 011°19'1515.3
2017-Feb-22 21:33N 38°26' W 011°31'  
2017-Feb-18 23:33N 38°17' W 009°50'1515.2
2017-Feb-18 22:33N 38°27' W 009°36'1515.6
2017-Feb-18 21:33N 38°38' W 009°21'13 3.8
2017-Feb-18 18:12N 38°43' W 009°07'0 0.0
2017-Feb-18 17:24N 38°43' W 009°07'0 0.0
2017-Feb-18 16:29N 38°43' W 009°07'0 0.0
2017-Feb-18 15:32N 38°43' W 009°07'0 0.0
2017-Feb-18 14:29N 38°43' W 009°07'0 0.0
2017-Feb-18 13:13N 38°43' W 009°07'0 0.0
2017-Feb-18 12:31N 38°43' W 009°07'0 0.0
2017-Feb-18 09:29N 38°43' W 009°07'0 0.0
2017-Feb-18 04:33N 38°43' W 009°07'0 0.1
2017-Feb-18 03:34N 38°43' W 009°07'1212.3
2017-Feb-18 02:33N 38°38' W 009°21'1615.9
2017-Feb-18 01:33N 38°39' W 009°41'1717.1
2017-Feb-18 00:33N 38°56' W 009°44'1817.5
2017-Feb-17 23:33N 39°14' W 009°45'2017.2
2017-Feb-17 22:25N 39°34' W 009°44'1517.1
2017-Feb-17 21:33N 39°48' W 009°39'  
Track history (hours):
 
Tides and Currents Weather Stations Pressure Air Temp Water Temp Dewpoint Dewpoint Depression Visibility Wind Speed Wind Dir Waves Ship Positions

Funchalense 5

Last reported at 2017-Feb-26 04:21 UTC. Time now 2017-Feb-26 07:38 UTC.
Position N 37°32' W 010°50'.

Length 127 m; draft 7.5 m.

Type: Ship. MMSI: 255804250.

Date/timePositionNaut miles runAvg speedWind from/ knotsBaromVisibWave heightAir tempDewpointWater temp
2017-Feb-26 04:21N 37°32' W 010°50'1215.3
2017-Feb-26 03:33N 37°40' W 010°39'2115.3
2017-Feb-26 02:12N 37°54' W 010°20'1715.2
2017-Feb-26 01:04N 38°06' W 010°04'1015.4
2017-Feb-26 00:27N 38°13' W 009°55'1415.3
2017-Feb-25 23:33N 38°22' W 009°43'1515.2
2017-Feb-25 22:33N 38°33' W 009°29'1514.5
2017-Feb-25 21:31N 38°41' W 009°13'5 5.2
2017-Feb-25 20:32N 38°43' W 009°07'0 0.0
2017-Feb-25 19:33N 38°43' W 009°07'0 0.0
2017-Feb-25 18:29N 38°43' W 009°07'0 0.0
2017-Feb-25 17:32N 38°43' W 009°07'0 0.0
2017-Feb-25 16:31N 38°43' W 009°07'0 0.0
2017-Feb-25 15:28N 38°43' W 009°07'0 0.0
2017-Feb-25 14:33N 38°43' W 009°07'0 0.0
2017-Feb-25 13:33N 38°43' W 009°07'0 0.0
2017-Feb-25 12:33N 38°43' W 009°07'0 0.0
2017-Feb-25 11:33N 38°43' W 009°07'0 0.0
2017-Feb-25 10:33N 38°43' W 009°07'0 0.0
2017-Feb-25 09:26N 38°43' W 009°07'0 0.0
2017-Feb-25 08:31N 38°43' W 009°07'0 0.2
2017-Feb-25 07:33N 38°43' W 009°07'10 9.9
2017-Feb-25 06:33N 38°40' W 009°19'1312.9
2017-Feb-25 05:33N 38°38' W 009°35'1212.2
2017-Feb-25 04:33N 38°48' W 009°44'1514.8
2017-Feb-25 03:33N 39°03' W 009°44'1414.2
2017-Feb-25 02:33N 39°17' W 009°44'38 0.8
2017-Feb-23 05:16N 39°54' W 009°54'1515.2
2017-Feb-23 04:18N 39°47' W 010°11'1614.8
2017-Feb-23 03:14N 39°35' W 010°23'1014.9
2017-Feb-23 02:33N 39°27' W 010°32'1515.1
2017-Feb-23 01:33N 39°15' W 010°43'1515.3
2017-Feb-23 00:33N 39°03' W 010°55'1515.5
2017-Feb-22 23:33N 38°50' W 011°07'1515.5
2017-Feb-22 22:33N 38°38' W 011°19'1515.3
2017-Feb-22 21:33N 38°26' W 011°31'  
2017-Feb-18 23:33N 38°17' W 009°50'1515.2
2017-Feb-18 22:33N 38°27' W 009°36'1515.6
2017-Feb-18 21:33N 38°38' W 009°21'13 3.8
2017-Feb-18 18:12N 38°43' W 009°07'0 0.0
2017-Feb-18 17:24N 38°43' W 009°07'0 0.0
2017-Feb-18 16:29N 38°43' W 009°07'0 0.0
2017-Feb-18 15:32N 38°43' W 009°07'0 0.0
2017-Feb-18 14:29N 38°43' W 009°07'0 0.0
2017-Feb-18 13:13N 38°43' W 009°07'0 0.0
2017-Feb-18 12:31N 38°43' W 009°07'0 0.0
2017-Feb-18 09:29N 38°43' W 009°07'0 0.0
2017-Feb-18 04:33N 38°43' W 009°07'0 0.1
2017-Feb-18 03:34N 38°43' W 009°07'1212.3
2017-Feb-18 02:33N 38°38' W 009°21'1615.9
2017-Feb-18 01:33N 38°39' W 009°41'1717.1
2017-Feb-18 00:33N 38°56' W 009°44'1817.5
2017-Feb-17 23:33N 39°14' W 009°45'2017.2
2017-Feb-17 22:25N 39°34' W 009°44'1517.1
2017-Feb-17 21:33N 39°48' W 009°39'  

Dump ship's entire track history